sensor_id;sensor_type;location;lat;lon;timestamp;pressure;altitude;pressure_sealevel;temperature;humidity
36692;BME280;22678;52.052;4.242;2022-09-09T00:00:24;100704.47;;;17.88;78.06
36692;BME280;22678;52.052;4.242;2022-09-09T00:03:20;100693.31;;;17.78;78.45
36692;BME280;22678;52.052;4.242;2022-09-09T00:05:58;100718.59;;;17.90;78.54
36692;BME280;22678;52.052;4.242;2022-09-09T00:08:40;100704.47;;;17.88;78.47
36692;BME280;22678;52.052;4.242;2022-09-09T00:11:12;100700.88;;;17.89;78.66
36692;BME280;22678;52.052;4.242;2022-09-09T00:13:44;100709.91;;;17.85;79.08
36692;BME280;22678;52.052;4.242;2022-09-09T00:16:17;100702.78;;;17.85;78.65
36692;BME280;22678;52.052;4.242;2022-09-09T00:19:07;100704.72;;;17.82;78.89
36692;BME280;22678;52.052;4.242;2022-09-09T00:21:43;100702.25;;;17.77;78.82
36692;BME280;22678;52.052;4.242;2022-09-09T00:26:51;100687.78;;;17.62;78.98
36692;BME280;22678;52.052;4.242;2022-09-09T00:29:35;100686.03;;;17.61;79.26
36692;BME280;22678;52.052;4.242;2022-09-09T00:32:32;100685.13;;;17.62;79.57
36692;BME280;22678;52.052;4.242;2022-09-09T00:35:04;100686.94;;;17.60;79.25
36692;BME280;22678;52.052;4.242;2022-09-09T00:37:41;100685.28;;;17.58;79.28
36692;BME280;22678;52.052;4.242;2022-09-09T00:40:22;100688.00;;;17.56;79.51
36692;BME280;22678;52.052;4.242;2022-09-09T00:42:58;100676.69;;;17.51;79.45
36692;BME280;22678;52.052;4.242;2022-09-09T00:47:56;100687.34;;;17.51;79.76
36692;BME280;22678;52.052;4.242;2022-09-09T00:50:43;100685.53;;;17.51;79.88
36692;BME280;22678;52.052;4.242;2022-09-09T00:53:31;100685.53;;;17.51;80.08
36692;BME280;22678;52.052;4.242;2022-09-09T00:58:37;100672.41;;;17.47;79.91
36692;BME280;22678;52.052;4.242;2022-09-09T01:01:09;100676.00;;;17.46;80.07
36692;BME280;22678;52.052;4.242;2022-09-09T01:03:49;100670.69;;;17.46;80.23
36692;BME280;22678;52.052;4.242;2022-09-09T01:06:31;100674.28;;;17.45;80.23
36692;BME280;22678;52.052;4.242;2022-09-09T01:09:32;100667.22;;;17.44;80.42
36692;BME280;22678;52.052;4.242;2022-09-09T01:12:16;100656.72;;;17.41;80.40
36692;BME280;22678;52.052;4.242;2022-09-09T01:14:47;100650.75;;;17.34;80.46
36692;BME280;22678;52.052;4.242;2022-09-09T01:17:30;100658.56;;;17.39;80.53
36692;BME280;22678;52.052;4.242;2022-09-09T01:23:15;100662.41;;;17.31;80.80
36692;BME280;22678;52.052;4.242;2022-09-09T01:28:33;100641.50;;;17.22;80.92
36692;BME280;22678;52.052;4.242;2022-09-09T01:31:01;100634.78;;;17.12;80.92
36692;BME280;22678;52.052;4.242;2022-09-09T01:33:27;100626.34;;;17.02;81.16
36692;BME280;22678;52.052;4.242;2022-09-09T01:36:10;100639.19;;;17.13;81.43
36692;BME280;22678;52.052;4.242;2022-09-09T01:38:36;100641.06;;;17.11;81.61
36692;BME280;22678;52.052;4.242;2022-09-09T01:41:02;100639.31;;;17.10;81.60
36692;BME280;22678;52.052;4.242;2022-09-09T01:43:28;100642.84;;;17.10;81.63
36692;BME280;22678;52.052;4.242;2022-09-09T01:45:56;100635.88;;;17.08;81.71
36692;BME280;22678;52.052;4.242;2022-09-09T01:48:24;100637.56;;;17.09;81.70
36692;BME280;22678;52.052;4.242;2022-09-09T01:50:49;100617.84;;;16.92;81.60
36692;BME280;22678;52.052;4.242;2022-09-09T01:53:17;100636.91;;;17.04;82.01
36692;BME280;22678;52.052;4.242;2022-09-09T01:55:53;100634.38;;;17.01;81.70
36692;BME280;22678;52.052;4.242;2022-09-09T02:04:03;100602.13;;;16.86;81.89
36692;BME280;22678;52.052;4.242;2022-09-09T02:06:36;100624.84;;;16.95;81.83
36692;BME280;22678;52.052;4.242;2022-09-09T02:09:05;100621.41;;;16.91;81.78
36692;BME280;22678;52.052;4.242;2022-09-09T02:11:31;100601.28;;;16.84;81.68
36692;BME280;22678;52.052;4.242;2022-09-09T02:14:01;100610.78;;;16.91;81.67
36692;BME280;22678;52.052;4.242;2022-09-09T02:16:32;100596.72;;;16.89;81.60
36692;BME280;22678;52.052;4.242;2022-09-09T02:19:18;100593.28;;;16.87;81.60
36692;BME280;22678;52.052;4.242;2022-09-09T02:21:49;100609.25;;;16.84;81.33
36692;BME280;22678;52.052;4.242;2022-09-09T02:24:15;100585.84;;;16.72;81.59
36692;BME280;22678;52.052;4.242;2022-09-09T02:26:42;100595.19;;;16.82;81.37
36692;BME280;22678;52.052;4.242;2022-09-09T02:29:26;100590.91;;;16.78;81.46
36692;BME280;22678;52.052;4.242;2022-09-09T02:31:55;100590.13;;;16.76;81.22
36692;BME280;22678;52.052;4.242;2022-09-09T02:34:23;100604.31;;;16.75;81.18
36692;BME280;22678;52.052;4.242;2022-09-09T02:36:50;100595.78;;;16.67;81.54
36692;BME280;22678;52.052;4.242;2022-09-09T02:39:18;100597.50;;;16.68;81.31
36692;BME280;22678;52.052;4.242;2022-09-09T02:41:43;100596.81;;;16.62;81.56
36692;BME280;22678;52.052;4.242;2022-09-09T02:44:11;100603.75;;;16.67;81.45
36692;BME280;22678;52.052;4.242;2022-09-09T02:46:49;100604.78;;;16.62;81.56
36692;BME280;22678;52.052;4.242;2022-09-09T02:52:07;100597.97;;;16.55;81.67
36692;BME280;22678;52.052;4.242;2022-09-09T02:54:35;100603.16;;;16.58;81.54
36692;BME280;22678;52.052;4.242;2022-09-09T02:57:17;100600.56;;;16.57;81.83
36692;BME280;22678;52.052;4.242;2022-09-09T02:59:45;100596.16;;;16.56;81.80
36692;BME280;22678;52.052;4.242;2022-09-09T03:02:10;100575.44;;;16.42;81.73
36692;BME280;22678;52.052;4.242;2022-09-09T03:04:40;100590.13;;;16.52;81.87
36692;BME280;22678;52.052;4.242;2022-09-09T03:07:06;100582.38;;;16.46;82.23
36692;BME280;22678;52.052;4.242;2022-09-09T03:09:32;100579.03;;;16.41;81.72
36692;BME280;22678;52.052;4.242;2022-09-09T03:12:00;100585.94;;;16.45;81.87
36692;BME280;22678;52.052;4.242;2022-09-09T03:14:25;100578.97;;;16.42;81.96
36692;BME280;22678;52.052;4.242;2022-09-09T03:16:52;100579.94;;;16.40;82.00
36692;BME280;22678;52.052;4.242;2022-09-09T03:19:17;100573.72;;;16.41;81.88
36692;BME280;22678;52.052;4.242;2022-09-09T03:21:44;100564.94;;;16.39;81.86
36692;BME280;22678;52.052;4.242;2022-09-09T03:24:10;100569.31;;;16.40;81.79
36692;BME280;22678;52.052;4.242;2022-09-09T03:26:35;100560.78;;;16.32;81.76
36692;BME280;22678;52.052;4.242;2022-09-09T03:29:03;100559.06;;;16.31;81.67
36692;BME280;22678;52.052;4.242;2022-09-09T03:31:28;100559.09;;;16.29;81.83
36692;BME280;22678;52.052;4.242;2022-09-09T03:33:56;100569.53;;;16.34;81.76
36692;BME280;22678;52.052;4.242;2022-09-09T03:36:23;100572.31;;;16.31;81.81
36692;BME280;22678;52.052;4.242;2022-09-09T03:38:48;100569.72;;;16.29;81.82
36692;BME280;22678;52.052;4.242;2022-09-09T03:41:14;100568.91;;;16.27;81.75
36692;BME280;22678;52.052;4.242;2022-09-09T03:43:39;100567.25;;;16.24;81.73
36692;BME280;22678;52.052;4.242;2022-09-09T03:46:05;100561.03;;;16.25;81.75
36692;BME280;22678;52.052;4.242;2022-09-09T03:48:30;100556.69;;;16.23;81.53
36692;BME280;22678;52.052;4.242;2022-09-09T03:50:56;100559.38;;;16.21;81.83
36692;BME280;22678;52.052;4.242;2022-09-09T03:53:23;100559.34;;;16.23;81.84
36692;BME280;22678;52.052;4.242;2022-09-09T03:55:52;100556.69;;;16.23;81.81
36692;BME280;22678;52.052;4.242;2022-09-09T03:58:20;100550.53;;;16.21;81.91
36692;BME280;22678;52.052;4.242;2022-09-09T04:00:57;100562.09;;;16.20;81.95
36692;BME280;22678;52.052;4.242;2022-09-09T04:03:23;100546.34;;;16.15;81.64
36692;BME280;22678;52.052;4.242;2022-09-09T04:05:52;100548.06;;;16.16;81.67
36692;BME280;22678;52.052;4.242;2022-09-09T04:08:19;100556.97;;;16.15;81.86
36692;BME280;22678;52.052;4.242;2022-09-09T04:10:46;100544.66;;;16.13;81.82
36692;BME280;22678;52.052;4.242;2022-09-09T04:13:12;100529.13;;;16.02;81.61
36692;BME280;22678;52.052;4.242;2022-09-09T04:15:40;100532.59;;;16.04;81.69
36692;BME280;22678;52.052;4.242;2022-09-09T04:18:05;100533.41;;;16.06;81.90
36692;BME280;22678;52.052;4.242;2022-09-09T04:20:31;100510.78;;;15.96;81.73
36692;BME280;22678;52.052;4.242;2022-09-09T04:22:56;100516.81;;;16.01;81.84
36692;BME280;22678;52.052;4.242;2022-09-09T04:25:22;100521.09;;;16.05;81.65
36692;BME280;22678;52.052;4.242;2022-09-09T04:27:47;100518.50;;;16.02;81.79
36692;BME280;22678;52.052;4.242;2022-09-09T04:30:13;100527.41;;;16.01;81.74
36692;BME280;22678;52.052;4.242;2022-09-09T04:32:38;100523.81;;;16.02;81.78
36692;BME280;22678;52.052;4.242;2022-09-09T04:35:04;100518.63;;;15.99;81.88
36692;BME280;22678;52.052;4.242;2022-09-09T04:37:29;100511.50;;;16.01;81.80
36692;BME280;22678;52.052;4.242;2022-09-09T04:39:55;100497.63;;;15.92;82.04
36692;BME280;22678;52.052;4.242;2022-09-09T04:42:21;100515.19;;;15.97;81.94
36692;BME280;22678;52.052;4.242;2022-09-09T04:44:46;100508.13;;;15.96;82.04
36692;BME280;22678;52.052;4.242;2022-09-09T04:47:11;100504.50;;;15.98;82.07
36692;BME280;22678;52.052;4.242;2022-09-09T04:49:37;100515.19;;;15.97;82.28
36692;BME280;22678;52.052;4.242;2022-09-09T04:52:04;100506.41;;;15.94;82.24
36692;BME280;22678;52.052;4.242;2022-09-09T04:54:29;100503.00;;;15.91;82.24
36692;BME280;22678;52.052;4.242;2022-09-09T04:56:55;100506.50;;;15.91;82.51
36692;BME280;22678;52.052;4.242;2022-09-09T04:59:21;100503.06;;;15.89;82.44
36692;BME280;22678;52.052;4.242;2022-09-09T05:01:47;100515.41;;;15.90;82.34
36692;BME280;22678;52.052;4.242;2022-09-09T05:04:13;100512.88;;;15.87;82.54
36692;BME280;22678;52.052;4.242;2022-09-09T05:06:40;100491.91;;;15.80;82.80
36692;BME280;22678;52.052;4.242;2022-09-09T05:09:05;100492.84;;;15.79;82.78
36692;BME280;22678;52.052;4.242;2022-09-09T05:11:31;100503.16;;;15.86;83.04
36692;BME280;22678;52.052;4.242;2022-09-09T05:13:57;100503.28;;;15.83;82.87
36692;BME280;22678;52.052;4.242;2022-09-09T05:16:23;100497.97;;;15.83;83.13
36692;BME280;22678;52.052;4.242;2022-09-09T05:18:48;100503.34;;;15.82;83.62
36692;BME280;22678;52.052;4.242;2022-09-09T05:21:16;100486.59;;;15.80;83.38
36692;BME280;22678;52.052;4.242;2022-09-09T05:23:42;100494.41;;;15.84;83.58
36692;BME280;22678;52.052;4.242;2022-09-09T05:26:12;100495.28;;;15.85;83.45
36692;BME280;22678;52.052;4.242;2022-09-09T05:28:38;100493.69;;;15.79;83.71
36692;BME280;22678;52.052;4.242;2022-09-09T05:31:06;100493.53;;;15.84;83.61
36692;BME280;22678;52.052;4.242;2022-09-09T05:33:33;100505.03;;;15.84;83.95
36692;BME280;22678;52.052;4.242;2022-09-09T05:36:04;100507.66;;;15.84;84.06
36692;BME280;22678;52.052;4.242;2022-09-09T05:38:31;100520.81;;;15.87;84.17
36692;BME280;22678;52.052;4.242;2022-09-09T05:40:58;100527.81;;;15.88;84.30
36692;BME280;22678;52.052;4.242;2022-09-09T05:43:24;100530.47;;;15.88;84.09
36692;BME280;22678;52.052;4.242;2022-09-09T05:46:01;100532.22;;;15.89;84.35
36692;BME280;22678;52.052;4.242;2022-09-09T05:48:28;100516.66;;;15.80;84.27
36692;BME280;22678;52.052;4.242;2022-09-09T05:50:54;100525.22;;;15.87;84.28
36692;BME280;22678;52.052;4.242;2022-09-09T05:53:20;100524.16;;;15.92;84.48
36692;BME280;22678;52.052;4.242;2022-09-09T05:55:45;100535.59;;;15.94;84.40
36692;BME280;22678;52.052;4.242;2022-09-09T05:58:11;100528.50;;;15.95;84.61
36692;BME280;22678;52.052;4.242;2022-09-09T06:00:36;100527.53;;;15.98;84.52
36692;BME280;22678;52.052;4.242;2022-09-09T06:03:02;100527.53;;;15.98;84.62
36692;BME280;22678;52.052;4.242;2022-09-09T06:05:28;100505.66;;;15.91;84.43
36692;BME280;22678;52.052;4.242;2022-09-09T06:07:55;100529.13;;;16.02;84.46
36692;BME280;22678;52.052;4.242;2022-09-09T06:10:20;100518.50;;;16.03;84.46
36692;BME280;22678;52.052;4.242;2022-09-09T06:12:46;100506.31;;;15.98;84.33
36692;BME280;22678;52.052;4.242;2022-09-09T06:15:11;100513.13;;;16.05;84.64
36692;BME280;22678;52.052;4.242;2022-09-09T06:17:36;100521.03;;;16.06;84.31
36692;BME280;22678;52.052;4.242;2022-09-09T06:20:02;100527.88;;;16.12;84.17
36692;BME280;22678;52.052;4.242;2022-09-09T06:22:28;100525.22;;;16.12;84.31
36692;BME280;22678;52.052;4.242;2022-09-09T06:24:53;100529.56;;;16.15;84.20
36692;BME280;22678;52.052;4.242;2022-09-09T06:27:18;100519.91;;;16.12;84.14
36692;BME280;22678;52.052;4.242;2022-09-09T06:29:44;100526.00;;;16.16;84.14
36692;BME280;22678;52.052;4.242;2022-09-09T06:32:09;100525.13;;;16.15;84.11
36692;BME280;22678;52.052;4.242;2022-09-09T06:34:34;100507.72;;;16.08;84.04
36692;BME280;22678;52.052;4.242;2022-09-09T06:37:01;100520.69;;;16.16;83.92
36692;BME280;22678;52.052;4.242;2022-09-09T06:39:26;100525.03;;;16.18;83.89
36692;BME280;22678;52.052;4.242;2022-09-09T06:41:52;100520.63;;;16.17;83.82
36692;BME280;22678;52.052;4.242;2022-09-09T06:44:18;100536.53;;;16.17;83.73
36692;BME280;22678;52.052;4.242;2022-09-09T06:46:44;100520.75;;;16.14;83.75
36692;BME280;22678;52.052;4.242;2022-09-09T06:49:13;100525.03;;;16.18;83.73
36692;BME280;22678;52.052;4.242;2022-09-09T06:51:38;100525.03;;;16.18;83.74
36692;BME280;22678;52.052;4.242;2022-09-09T06:54:08;100531.91;;;16.22;83.73
36692;BME280;22678;52.052;4.242;2022-09-09T06:56:36;100522.38;;;16.18;83.65
36692;BME280;22678;52.052;4.242;2022-09-09T06:59:03;100518.81;;;16.18;83.69
36692;BME280;22678;52.052;4.242;2022-09-09T07:01:32;100531.91;;;16.24;83.58
36692;BME280;22678;52.052;4.242;2022-09-09T07:03:59;100527.56;;;16.21;83.38
36692;BME280;22678;52.052;4.242;2022-09-09T07:06:27;100506.63;;;16.14;83.30
36692;BME280;22678;52.052;4.242;2022-09-09T07:08:54;100524.78;;;16.24;83.48
36692;BME280;22678;52.052;4.242;2022-09-09T07:11:21;100505.75;;;16.13;83.47
36692;BME280;22678;52.052;4.242;2022-09-09T07:13:47;100524.78;;;16.24;83.17
36692;BME280;22678;52.052;4.242;2022-09-09T07:16:16;100528.34;;;16.23;83.30
36692;BME280;22678;52.052;4.242;2022-09-09T07:18:42;100523.03;;;16.23;83.27
36692;BME280;22678;52.052;4.242;2022-09-09T07:21:10;100523.03;;;16.23;83.23
36692;BME280;22678;52.052;4.242;2022-09-09T07:23:37;100523.97;;;16.22;83.27
36692;BME280;22678;52.052;4.242;2022-09-09T07:26:08;100523.81;;;16.27;83.18
36692;BME280;22678;52.052;4.242;2022-09-09T07:28:33;100524.78;;;16.24;83.27
36692;BME280;22678;52.052;4.242;2022-09-09T07:31:00;100521.09;;;16.28;83.10
36692;BME280;22678;52.052;4.242;2022-09-09T07:33:27;100508.88;;;16.24;83.25
36692;BME280;22678;52.052;4.242;2022-09-09T07:36:08;100521.03;;;16.30;83.09
36692;BME280;22678;52.052;4.242;2022-09-09T07:38:41;100518.38;;;16.30;83.02
36692;BME280;22678;52.052;4.242;2022-09-09T07:41:10;100517.50;;;16.29;82.97
36692;BME280;22678;52.052;4.242;2022-09-09T07:43:42;100526.28;;;16.32;83.09
36692;BME280;22678;52.052;4.242;2022-09-09T07:46:09;100519.25;;;16.31;82.99
36692;BME280;22678;52.052;4.242;2022-09-09T07:48:36;100496.09;;;16.10;82.98
36692;BME280;22678;52.052;4.242;2022-09-09T07:51:15;100528.00;;;16.33;83.01
36692;BME280;22678;52.052;4.242;2022-09-09T07:53:45;100520.94;;;16.33;82.87
36692;BME280;22678;52.052;4.242;2022-09-09T07:56:13;100519.19;;;16.32;82.96
36692;BME280;22678;52.052;4.242;2022-09-09T07:58:40;100526.97;;;16.37;83.08
36692;BME280;22678;52.052;4.242;2022-09-09T08:01:15;100527.91;;;16.36;82.72
36692;BME280;22678;52.052;4.242;2022-09-09T08:03:44;100516.25;;;16.40;82.95
36692;BME280;22678;52.052;4.242;2022-09-09T08:06:09;100525.88;;;16.42;82.58
36692;BME280;22678;52.052;4.242;2022-09-09T08:08:36;100529.31;;;16.46;82.66
36692;BME280;22678;52.052;4.242;2022-09-09T08:11:07;100525.66;;;16.49;82.54
36692;BME280;22678;52.052;4.242;2022-09-09T08:13:35;100518.56;;;16.49;82.42
36692;BME280;22678;52.052;4.242;2022-09-09T08:16:14;100520.16;;;16.53;82.45
36692;BME280;22678;52.052;4.242;2022-09-09T08:18:39;100528.06;;;16.55;82.29
36692;BME280;22678;52.052;4.242;2022-09-09T08:23:36;100527.09;;;16.57;82.36
36692;BME280;22678;52.052;4.242;2022-09-09T08:26:06;100527.72;;;16.64;82.04
36692;BME280;22678;52.052;4.242;2022-09-09T08:28:32;100532.16;;;16.63;81.72
36692;BME280;22678;52.052;4.242;2022-09-09T08:31:14;100525.13;;;16.62;81.92
36692;BME280;22678;52.052;4.242;2022-09-09T08:33:42;100530.44;;;16.62;81.63
36692;BME280;22678;52.052;4.242;2022-09-09T08:36:12;100534.75;;;16.65;81.71
36692;BME280;22678;52.052;4.242;2022-09-09T08:38:38;100533.09;;;16.62;81.73
36692;BME280;22678;52.052;4.242;2022-09-09T08:55:39;100533.66;;;16.71;81.06
36692;BME280;22678;52.052;4.242;2022-09-09T08:58:13;100535.41;;;16.72;81.39
36692;BME280;22678;52.052;4.242;2022-09-09T09:00:54;100537.38;;;16.67;81.43
36692;BME280;22678;52.052;4.242;2022-09-09T09:03:30;100543.22;;;16.75;81.65
36692;BME280;22678;52.052;4.242;2022-09-09T09:06:16;100542.19;;;16.79;81.73
36692;BME280;22678;52.052;4.242;2022-09-09T09:08:52;100538.69;;;16.78;81.81
36692;BME280;22678;52.052;4.242;2022-09-09T09:11:23;100539.22;;;16.88;81.85
36692;BME280;22678;52.052;4.242;2022-09-09T09:13:59;100550.41;;;16.96;81.80
36692;BME280;22678;52.052;4.242;2022-09-09T09:16:34;100539.47;;;17.04;81.64
36692;BME280;22678;52.052;4.242;2022-09-09T09:19:02;100531.00;;;17.16;81.32
36692;BME280;22678;52.052;4.242;2022-09-09T09:22:20;100537.78;;;17.24;81.34
36692;BME280;22678;52.052;4.242;2022-09-09T09:27:34;100542.00;;;17.29;81.44
36692;BME280;22678;52.052;4.242;2022-09-09T09:30:11;100544.00;;;17.24;81.21
36692;BME280;22678;52.052;4.242;2022-09-09T09:32:39;100541.47;;;17.21;81.40
36692;BME280;22678;52.052;4.242;2022-09-09T09:35:11;100541.53;;;17.20;81.62
36692;BME280;22678;52.052;4.242;2022-09-09T09:37:37;100534.41;;;17.20;81.74
36692;BME280;22678;52.052;4.242;2022-09-09T09:40:18;100542.38;;;17.20;81.89
36692;BME280;22678;52.052;4.242;2022-09-09T09:42:56;100521.63;;;17.08;81.81
36692;BME280;22678;52.052;4.242;2022-09-09T09:45:32;100540.03;;;17.12;82.13
36692;BME280;22678;52.052;4.242;2022-09-09T09:48:04;100533.25;;;17.05;82.52
36692;BME280;22678;52.052;4.242;2022-09-09T09:50:30;100545.81;;;17.00;82.92
36692;BME280;22678;52.052;4.242;2022-09-09T09:53:03;100542.50;;;16.95;83.52
36692;BME280;22678;52.052;4.242;2022-09-09T09:55:29;100554.09;;;16.92;83.90
36692;BME280;22678;52.052;4.242;2022-09-09T09:58:04;100538.28;;;16.89;84.23
36692;BME280;22678;52.052;4.242;2022-09-09T10:00:30;100539.22;;;16.87;84.61
36692;BME280;22678;52.052;4.242;2022-09-09T10:02:55;100523.53;;;16.80;85.01
36692;BME280;22678;52.052;4.242;2022-09-09T10:05:29;100539.09;;;16.91;85.26
36692;BME280;22678;52.052;4.242;2022-09-09T10:14:00;100544.97;;;16.99;86.17
36692;BME280;22678;52.052;4.242;2022-09-09T10:19:34;100545.47;;;16.87;86.49
36692;BME280;22678;52.052;4.242;2022-09-09T10:22:13;100543.81;;;16.83;86.79
36692;BME280;22678;52.052;4.242;2022-09-09T10:24:48;100544.78;;;16.80;86.84
36692;BME280;22678;52.052;4.242;2022-09-09T10:27:20;100537.00;;;16.76;87.04
36692;BME280;22678;52.052;4.242;2022-09-09T10:32:33;100547.38;;;16.82;87.92
36692;BME280;22678;52.052;4.242;2022-09-09T10:37:58;100532.44;;;16.79;88.17
36692;BME280;22678;52.052;4.242;2022-09-09T10:43:06;100538.81;;;16.99;88.45
36692;BME280;22678;52.052;4.242;2022-09-09T10:57:02;100531.94;;;17.58;87.98
36692;BME280;22678;52.052;4.242;2022-09-09T10:59:34;100522.03;;;17.62;87.92
36692;BME280;22678;52.052;4.242;2022-09-09T11:02:27;100529.44;;;17.76;87.82
36692;BME280;22678;52.052;4.242;2022-09-09T11:05:14;100522.94;;;17.83;87.24
36692;BME280;22678;52.052;4.242;2022-09-09T11:12:59;100528.38;;;18.00;85.83
36692;BME280;22678;52.052;4.242;2022-09-09T11:15:32;100527.91;;;18.11;85.35
36692;BME280;22678;52.052;4.242;2022-09-09T11:18:02;100526.97;;;18.12;84.85
36692;BME280;22678;52.052;4.242;2022-09-09T11:20:29;100513.16;;;18.04;84.60
36692;BME280;22678;52.052;4.242;2022-09-09T11:23:11;100528.50;;;18.18;84.01
36692;BME280;22678;52.052;4.242;2022-09-09T11:25:53;100539.94;;;18.20;83.87
36692;BME280;22678;52.052;4.242;2022-09-09T11:28:46;100514.47;;;18.14;82.80
36692;BME280;22678;52.052;4.242;2022-09-09T11:31:40;100543.41;;;18.22;82.61
36692;BME280;22678;52.052;4.242;2022-09-09T11:34:30;100532.97;;;18.17;82.48
36692;BME280;22678;52.052;4.242;2022-09-09T11:40:22;100528.50;;;17.97;82.61
36692;BME280;22678;52.052;4.242;2022-09-09T11:42:48;100543.19;;;17.85;82.95
36692;BME280;22678;52.052;4.242;2022-09-09T11:45:24;100526.09;;;17.71;83.52
36692;BME280;22678;52.052;4.242;2022-09-09T11:47:57;100552.41;;;17.77;83.75
36692;BME280;22678;52.052;4.242;2022-09-09T11:52:49;100553.38;;;17.76;84.41
36692;BME280;22678;52.052;4.242;2022-09-09T11:55:32;100551.63;;;17.75;84.87
36692;BME280;22678;52.052;4.242;2022-09-09T11:58:06;100555.28;;;17.72;84.92
36692;BME280;22678;52.052;4.242;2022-09-09T12:00:48;100547.25;;;17.74;85.13
36692;BME280;22678;52.052;4.242;2022-09-09T12:06:27;100539.44;;;17.91;85.65
36692;BME280;22678;52.052;4.242;2022-09-09T12:09:04;100549.66;;;18.00;85.65
36692;BME280;22678;52.052;4.242;2022-09-09T12:11:31;100542.34;;;18.06;86.07
36692;BME280;22678;52.052;4.242;2022-09-09T12:13:59;100542.69;;;18.18;85.78
36692;BME280;22678;52.052;4.242;2022-09-09T12:16:37;100544.84;;;18.29;85.83
36692;BME280;22678;52.052;4.242;2022-09-09T12:19:23;100551.50;;;18.39;85.44
36692;BME280;22678;52.052;4.242;2022-09-09T12:21:58;100534.19;;;18.29;85.35
36692;BME280;22678;52.052;4.242;2022-09-09T12:24:54;100546.84;;;18.45;85.25
36692;BME280;22678;52.052;4.242;2022-09-09T12:27:31;100561.84;;;18.46;85.07
36692;BME280;22678;52.052;4.242;2022-09-09T12:30:07;100540.13;;;18.36;84.91
36692;BME280;22678;52.052;4.242;2022-09-09T12:32:35;100562.91;;;18.42;85.18
36692;BME280;22678;52.052;4.242;2022-09-09T12:35:03;100564.00;;;18.37;85.19
36692;BME280;22678;52.052;4.242;2022-09-09T12:37:43;100569.34;;;18.37;85.02
36692;BME280;22678;52.052;4.242;2022-09-09T12:40:22;100564.25;;;18.31;84.97
36692;BME280;22678;52.052;4.242;2022-09-09T12:42:48;100569.81;;;18.27;85.08
36692;BME280;22678;52.052;4.242;2022-09-09T12:45:19;100568.94;;;18.26;85.38
36692;BME280;22678;52.052;4.242;2022-09-09T12:47:55;100573.72;;;18.18;85.42
36692;BME280;22678;52.052;4.242;2022-09-09T12:50:22;100577.34;;;18.17;85.67
36692;BME280;22678;52.052;4.242;2022-09-09T12:52:52;100566.44;;;18.02;85.61
36692;BME280;22678;52.052;4.242;2022-09-09T12:55:31;100538.81;;;17.84;85.67
36692;BME280;22678;52.052;4.242;2022-09-09T12:57:59;100569.38;;;17.96;85.72
36692;BME280;22678;52.052;4.242;2022-09-09T13:00:26;100576.41;;;17.97;86.08
36692;BME280;22678;52.052;4.242;2022-09-09T13:05:23;100569.63;;;17.90;86.32
36692;BME280;22678;52.052;4.242;2022-09-09T13:07:48;100567.00;;;17.89;86.77
36692;BME280;22678;52.052;4.242;2022-09-09T13:10:21;100572.97;;;17.95;87.04
36692;BME280;22678;52.052;4.242;2022-09-09T13:12:49;100574.69;;;17.96;87.13
36692;BME280;22678;52.052;4.242;2022-09-09T13:15:21;100572.03;;;17.96;87.29
36692;BME280;22678;52.052;4.242;2022-09-09T13:17:56;100562.44;;;17.92;87.37
36692;BME280;22678;52.052;4.242;2022-09-09T13:20:22;100571.09;;;17.97;87.69
36692;BME280;22678;52.052;4.242;2022-09-09T13:22:50;100570.38;;;17.94;87.59
36692;BME280;22678;52.052;4.242;2022-09-09T13:25:21;100584.66;;;17.91;87.55
36692;BME280;22678;52.052;4.242;2022-09-09T13:28:04;100582.22;;;17.85;87.76
36692;BME280;22678;52.052;4.242;2022-09-09T13:30:37;100587.75;;;17.80;87.41
36692;BME280;22678;52.052;4.242;2022-09-09T13:35:50;100588.38;;;17.65;87.38
36692;BME280;22678;52.052;4.242;2022-09-09T13:38:18;100593.91;;;17.60;87.18
36692;BME280;22678;52.052;4.242;2022-09-09T13:41:01;100583.66;;;17.51;86.92
36692;BME280;22678;52.052;4.242;2022-09-09T13:43:31;100584.69;;;17.47;86.71
36692;BME280;22678;52.052;4.242;2022-09-09T13:46:01;100596.13;;;17.49;86.77
36692;BME280;22678;52.052;4.242;2022-09-09T13:48:27;100590.13;;;17.44;87.03
36692;BME280;22678;52.052;4.242;2022-09-09T13:50:57;100584.13;;;17.39;86.99
36692;BME280;22678;52.052;4.242;2022-09-09T13:53:23;100597.13;;;17.46;87.05
36692;BME280;22678;52.052;4.242;2022-09-09T13:55:49;100592.66;;;17.47;87.04
36692;BME280;22678;52.052;4.242;2022-09-09T13:58:16;100580.78;;;17.56;87.36
36692;BME280;22678;52.052;4.242;2022-09-09T14:00:43;100552.41;;;17.56;87.55
36692;BME280;22678;52.052;4.242;2022-09-09T14:03:09;100570.81;;;17.83;87.51
36692;BME280;22678;52.052;4.242;2022-09-09T14:05:35;100564.00;;;17.98;87.82
36692;BME280;22678;52.052;4.242;2022-09-09T14:08:00;100574.75;;;18.15;88.41
36692;BME280;22678;52.052;4.242;2022-09-09T14:10:28;100559.38;;;18.22;88.32
36692;BME280;22678;52.052;4.242;2022-09-09T14:12:53;100553.63;;;18.31;88.53
36692;BME280;22678;52.052;4.242;2022-09-09T14:15:18;100558.97;;;18.50;88.63
36692;BME280;22678;52.052;4.242;2022-09-09T14:17:45;100553.81;;;18.66;89.10
36692;BME280;22678;52.052;4.242;2022-09-09T14:20:11;100568.53;;;18.94;88.66
36692;BME280;22678;52.052;4.242;2022-09-09T14:22:37;100575.66;;;19.13;88.45
36692;BME280;22678;52.052;4.242;2022-09-09T14:25:04;100577.72;;;19.25;88.47
36692;BME280;22678;52.052;4.242;2022-09-09T14:27:30;100580.00;;;19.33;87.87
36692;BME280;22678;52.052;4.242;2022-09-09T14:29:55;100587.75;;;19.37;86.57
36692;BME280;22678;52.052;4.242;2022-09-09T14:32:22;100576.88;;;19.24;86.29
36692;BME280;22678;52.052;4.242;2022-09-09T14:34:48;100591.97;;;19.24;86.22
36692;BME280;22678;52.052;4.242;2022-09-09T14:37:15;100592.28;;;19.18;85.42